Stony Plain, Canada
Current Conditions -  °F | °C
As of 6:00 AM on Sunday 23 Nov 2014 (Local Time) from CWSE Reporting Station
Clear Clear  
Wind Chill: 11°   Ceiling: Unl
Heat Index: 11°   Visibility: 15mi
Dew Point:   Wind: 3mph
Humidity: 90%   Direction: 210°SSW
Pressure: 29.75"   Gusts: NA
Location:  53.53°N, 114.01°W
Report Text: CWSE 231300Z 21003KT 15SM CLR M12/M13 A2975 RMK SLP129 FROIN T11161130 WSI/SWOB
Loading
Personal Weather Stations






























Interactive Weather Map New forecast layout! Learn more

10-Day Weather Forecast

Advertisements
Track Severe Weather on mobile